createdAt,value
2023-01-15T00:02:17.766Z,15.23
2023-01-15T00:04:44.856Z,13.75
2023-01-15T00:07:11.765Z,14.98
2023-01-15T00:09:38.773Z,13.95
2023-01-15T00:12:06.951Z,13.10
2023-01-15T00:14:33.797Z,13.07
2023-01-15T00:17:16.812Z,12.57
2023-01-15T00:20:52.697Z,12.77
2023-01-15T00:23:44.921Z,12.30
2023-01-15T00:26:47.184Z,10.93
2023-01-15T00:29:32.790Z,11.63
2023-01-15T00:35:31.596Z,12.82
2023-01-15T00:38:50.979Z,12.45
2023-01-15T00:41:46.982Z,14.18
2023-01-15T00:44:54.956Z,12.20
2023-01-15T00:47:58.113Z,11.70
2023-01-15T00:53:34.432Z,12.40
2023-01-15T00:56:31.716Z,11.50
2023-01-15T00:59:12.790Z,11.85
2023-01-15T01:01:47.096Z,11.32
2023-01-15T01:04:14.351Z,11.32
2023-01-15T01:07:14.494Z,11.88
2023-01-15T01:10:04.344Z,9.50
2023-01-15T01:12:48.828Z,11.70
2023-01-15T01:15:27.536Z,10.75
2023-01-15T01:18:43.588Z,10.35
2023-01-15T01:25:29.839Z,11.15
2023-01-15T01:31:46.768Z,11.20
2023-01-15T01:34:45.505Z,10.43
2023-01-15T01:38:01.980Z,10.38
2023-01-15T01:44:29.171Z,10.57
2023-01-15T01:47:19.009Z,10.18
2023-01-15T01:57:06.340Z,9.02
2023-01-15T02:00:10.634Z,9.73
2023-01-15T02:03:33.840Z,8.80
2023-01-15T02:10:14.156Z,7.93
2023-01-15T02:14:41.581Z,8.80
2023-01-15T02:19:44.859Z,7.68
2023-01-15T02:22:37.435Z,8.40
2023-01-15T02:25:52.625Z,7.53
2023-01-15T02:29:10.310Z,7.47
2023-01-15T02:32:24.609Z,7.25
2023-01-15T02:35:41.930Z,6.85
2023-01-15T02:38:15.571Z,7.30
2023-01-15T02:44:55.031Z,6.45
2023-01-15T02:54:33.596Z,6.53
2023-01-15T03:00:37.155Z,5.72
2023-01-15T03:04:55.250Z,6.30
2023-01-15T03:18:34.753Z,5.97
2023-01-15T03:21:08.336Z,4.82
2023-01-15T03:23:39.740Z,5.60
2023-01-15T03:26:07.048Z,5.78
2023-01-15T03:28:37.358Z,5.13
2023-01-15T03:31:04.468Z,5.10
2023-01-15T03:33:31.339Z,5.22
2023-01-15T03:36:02.589Z,4.80
2023-01-15T03:38:38.566Z,4.50
2023-01-15T03:41:25.985Z,4.82
2023-01-15T03:44:00.098Z,4.50
2023-01-15T03:46:56.068Z,4.57
2023-01-15T03:49:45.496Z,3.97
2023-01-15T03:52:38.189Z,4.07
2023-01-15T03:55:11.185Z,4.25
2023-01-15T03:57:45.645Z,4.47
2023-01-15T04:00:27.259Z,4.60
2023-01-15T04:02:58.636Z,4.30
2023-01-15T04:05:26.862Z,4.47
2023-01-15T04:07:56.453Z,3.55
2023-01-15T04:10:23.329Z,4.45
2023-01-15T04:12:51.368Z,3.50
2023-01-15T04:15:19.094Z,3.80
2023-01-15T04:17:45.977Z,4.50
2023-01-15T04:20:13.113Z,3.78
2023-01-15T04:22:40.014Z,4.32
2023-01-15T04:25:08.314Z,4.68
2023-01-15T04:27:35.130Z,3.85
2023-01-15T04:30:02.263Z,3.80
2023-01-15T04:32:29.060Z,3.65
2023-01-15T04:34:55.917Z,3.72
2023-01-15T04:37:22.729Z,3.53
2023-01-15T04:39:49.467Z,3.58
2023-01-15T04:42:34.610Z,3.30
2023-01-15T04:45:01.369Z,3.33
2023-01-15T04:47:30.968Z,3.30
2023-01-15T04:49:57.726Z,2.88
2023-01-15T04:52:24.502Z,2.95
2023-01-15T04:54:51.282Z,3.33
2023-01-15T04:57:18.223Z,2.80
2023-01-15T04:59:45.053Z,2.92
2023-01-15T05:02:14.095Z,3.50
2023-01-15T05:04:41.956Z,3.45
2023-01-15T05:07:10.107Z,2.70
2023-01-15T05:09:37.316Z,2.70
2023-01-15T05:12:04.442Z,2.45
2023-01-15T05:14:31.243Z,3.10
2023-01-15T05:16:58.052Z,2.90
2023-01-15T05:19:24.849Z,2.80
2023-01-15T05:21:51.706Z,2.78
2023-01-15T05:24:19.754Z,3.00
2023-01-15T05:26:46.608Z,2.83
2023-01-15T05:29:13.859Z,2.50
2023-01-15T05:31:42.714Z,2.28
2023-01-15T05:34:10.183Z,2.63
2023-01-15T05:36:37.604Z,2.50
2023-01-15T05:39:04.863Z,2.58
2023-01-15T05:41:50.211Z,2.80
2023-01-15T05:44:23.292Z,2.67
2023-01-15T05:46:56.455Z,2.38
2023-01-15T05:49:25.565Z,2.97
2023-01-15T05:51:53.919Z,2.72
2023-01-15T05:54:23.168Z,2.33
2023-01-15T05:56:49.969Z,2.85
2023-01-15T05:59:19.303Z,2.67
2023-01-15T06:01:46.431Z,2.75
2023-01-15T06:04:17.837Z,2.83
2023-01-15T06:06:45.844Z,2.97
2023-01-15T06:09:13.295Z,3.03
2023-01-15T06:11:40.764Z,2.97
2023-01-15T06:14:08.264Z,2.38
2023-01-15T06:16:34.978Z,3.25
2023-01-15T06:19:04.289Z,2.75
2023-01-15T06:21:32.521Z,3.22
2023-01-15T06:23:59.259Z,2.88
2023-01-15T06:26:26.247Z,2.38
2023-01-15T06:28:53.222Z,2.22
2023-01-15T06:31:22.693Z,2.70
2023-01-15T06:33:49.755Z,2.92
2023-01-15T06:36:21.942Z,2.55
2023-01-15T06:38:49.456Z,2.65
2023-01-15T06:41:38.518Z,2.72
2023-01-15T06:44:24.505Z,3.47
2023-01-15T06:47:10.546Z,2.72
2023-01-15T06:49:38.142Z,2.88
2023-01-15T06:52:05.960Z,2.90
2023-01-15T06:54:34.027Z,3.20
2023-01-15T06:57:00.852Z,2.90
2023-01-15T06:59:27.558Z,2.80
2023-01-15T07:01:54.367Z,2.70
2023-01-15T07:04:21.221Z,3.10
2023-01-15T07:06:48.068Z,3.67
2023-01-15T07:09:15.098Z,3.10
2023-01-15T07:11:51.111Z,3.65
2023-01-15T07:14:24.615Z,3.95
2023-01-15T07:16:52.108Z,3.38
2023-01-15T07:19:19.728Z,4.30
2023-01-15T07:21:47.107Z,4.60
2023-01-15T07:24:16.441Z,4.18
2023-01-15T07:26:43.853Z,3.42
2023-01-15T07:29:10.929Z,3.63
2023-01-15T07:31:38.131Z,3.40
2023-01-15T07:34:05.538Z,3.65
2023-01-15T07:36:33.400Z,4.20
2023-01-15T07:39:00.232Z,6.40
2023-01-15T07:41:45.512Z,7.43
2023-01-15T07:44:31.473Z,5.65
2023-01-15T07:47:17.021Z,4.80
2023-01-15T07:49:47.253Z,4.07
2023-01-15T07:52:20.118Z,3.60
2023-01-15T07:54:48.058Z,5.10
2023-01-15T07:57:18.825Z,4.28
2023-01-15T07:59:45.627Z,6.25
2023-01-15T08:02:13.166Z,5.43
2023-01-15T08:04:40.501Z,4.63
2023-01-15T08:07:08.555Z,4.63
2023-01-15T08:09:35.480Z,4.38
2023-01-15T08:12:22.256Z,6.72
2023-01-15T08:15:07.887Z,4.30
2023-01-15T08:17:38.288Z,4.55
2023-01-15T08:20:07.769Z,4.90
2023-01-15T08:22:34.563Z,5.82
2023-01-15T08:25:01.328Z,6.60
2023-01-15T08:27:29.096Z,4.70
2023-01-15T08:29:56.807Z,5.00
2023-01-15T08:32:24.468Z,5.68
2023-01-15T08:34:51.607Z,5.13
2023-01-15T08:37:18.612Z,5.05
2023-01-15T08:39:46.173Z,4.90
2023-01-15T08:42:15.542Z,6.72
2023-01-15T08:44:50.092Z,6.80
2023-01-15T08:47:18.448Z,5.57
2023-01-15T08:49:47.152Z,5.70
2023-01-15T08:52:15.821Z,5.55
2023-01-15T08:54:43.573Z,5.63
2023-01-15T08:57:12.570Z,4.82
2023-01-15T08:59:39.760Z,4.95
2023-01-15T09:02:10.032Z,5.22
2023-01-15T09:04:42.440Z,4.75
2023-01-15T09:07:20.762Z,5.03
2023-01-15T09:09:53.627Z,5.32
2023-01-15T09:12:22.707Z,5.47
2023-01-15T09:15:00.251Z,5.18
2023-01-15T09:17:33.421Z,5.90
2023-01-15T09:22:30.273Z,5.50
2023-01-15T09:24:57.446Z,5.97
2023-01-15T09:27:24.539Z,5.85
2023-01-15T09:29:51.732Z,5.25
2023-01-15T09:32:18.578Z,4.85
2023-01-15T09:34:45.579Z,4.53
2023-01-15T09:37:12.426Z,5.55
2023-01-15T09:39:39.481Z,5.53
2023-01-15T09:42:34.422Z,4.70
2023-01-15T09:45:31.347Z,5.40
2023-01-15T09:48:24.666Z,4.95
2023-01-15T09:51:14.969Z,5.00
2023-01-15T09:53:54.435Z,6.07
2023-01-15T09:56:27.937Z,4.60
2023-01-15T09:58:56.650Z,4.82
2023-01-15T10:01:31.653Z,5.32
2023-01-15T10:04:33.358Z,6.55
2023-01-15T10:07:22.902Z,6.60
2023-01-15T10:09:59.632Z,6.07
2023-01-15T10:12:39.769Z,4.50
2023-01-15T10:15:37.090Z,5.35
2023-01-15T10:18:08.590Z,6.05
2023-01-15T10:20:41.587Z,5.53
2023-01-15T10:23:26.799Z,5.00
2023-01-15T10:26:17.864Z,4.22
2023-01-15T10:29:25.205Z,4.53
2023-01-15T10:31:54.964Z,4.65
2023-01-15T10:34:45.818Z,5.85
2023-01-15T10:37:27.589Z,4.30
2023-01-15T10:40:16.303Z,4.45
2023-01-15T10:42:49.277Z,4.53
2023-01-15T10:45:27.084Z,5.10
2023-01-15T10:48:10.095Z,4.18
2023-01-15T10:50:37.554Z,4.72
2023-01-15T10:53:31.565Z,4.63
2023-01-15T10:56:24.787Z,4.95
2023-01-15T10:59:22.420Z,3.95
2023-01-15T11:01:53.980Z,5.28
2023-01-15T11:04:36.292Z,4.22
2023-01-15T11:07:07.754Z,5.00
2023-01-15T11:09:38.491Z,4.47
2023-01-15T11:12:47.875Z,4.63
2023-01-15T11:15:40.475Z,4.68
2023-01-15T11:18:43.347Z,5.85
2023-01-15T11:21:13.408Z,5.25
2023-01-15T11:23:42.633Z,4.55
2023-01-15T11:26:33.870Z,5.10
2023-01-15T11:29:13.209Z,6.65
2023-01-15T11:31:41.289Z,5.80
2023-01-15T11:34:27.927Z,5.50
2023-01-15T11:37:23.630Z,7.80
2023-01-15T11:40:06.697Z,5.38
2023-01-15T11:42:52.253Z,6.35
2023-01-15T11:45:40.847Z,5.20
2023-01-15T11:48:39.078Z,6.97
2023-01-15T11:51:11.895Z,6.07
2023-01-15T11:53:47.871Z,8.00
2023-01-15T11:56:27.326Z,8.43
2023-01-15T11:59:00.802Z,8.43
2023-01-15T12:01:34.892Z,6.93
2023-01-15T12:04:06.434Z,9.40
2023-01-15T12:07:26.734Z,7.13
2023-01-15T12:10:41.582Z,10.45
2023-01-15T12:13:47.286Z,6.47
2023-01-15T12:16:14.272Z,6.07
2023-01-15T12:18:52.376Z,5.95
2023-01-15T12:21:40.693Z,5.63
2023-01-15T12:24:43.663Z,6.68
2023-01-15T12:27:49.379Z,10.95
2023-01-15T12:30:39.187Z,8.73
2023-01-15T12:33:19.714Z,10.53
2023-01-15T12:39:00.010Z,9.60
2023-01-15T12:41:52.351Z,9.55
2023-01-15T12:45:07.914Z,7.45
2023-01-15T12:47:49.040Z,8.90
2023-01-15T12:50:47.793Z,8.07
2023-01-15T12:53:46.112Z,7.68
2023-01-15T12:56:22.152Z,10.63
2023-01-15T12:59:00.160Z,8.55
2023-01-15T13:01:32.844Z,6.55
2023-01-15T13:04:28.120Z,6.40
2023-01-15T13:07:12.121Z,6.57
2023-01-15T13:09:45.689Z,6.72
2023-01-15T13:12:14.930Z,6.90
2023-01-15T13:14:45.514Z,6.70
2023-01-15T13:17:29.014Z,6.38
2023-01-15T13:20:04.717Z,9.88
2023-01-15T13:22:37.700Z,7.18
2023-01-15T13:25:21.177Z,6.60
2023-01-15T13:28:03.064Z,7.72
2023-01-15T13:30:48.302Z,5.70
2023-01-15T13:33:21.367Z,6.47
2023-01-15T13:35:52.118Z,7.60
2023-01-15T13:38:22.900Z,9.52
2023-01-15T13:40:53.315Z,6.90
2023-01-15T13:44:10.618Z,7.55
2023-01-15T13:46:47.452Z,8.15
2023-01-15T13:49:34.490Z,6.82
2023-01-15T13:52:46.360Z,5.63
2023-01-15T13:55:44.517Z,11.02
2023-01-15T13:58:21.267Z,7.13
2023-01-15T14:00:49.279Z,6.35
2023-01-15T14:03:31.803Z,6.35
2023-01-15T14:06:09.483Z,7.15
2023-01-15T14:08:46.842Z,6.13
2023-01-15T14:11:37.145Z,7.05
2023-01-15T14:14:36.472Z,8.05
2023-01-15T14:17:34.410Z,6.10
2023-01-15T14:20:34.051Z,6.03
2023-01-15T14:23:22.037Z,7.03
2023-01-15T14:26:10.365Z,7.43
2023-01-15T14:29:00.436Z,10.13
2023-01-15T14:31:39.042Z,10.23
2023-01-15T14:34:18.061Z,12.23
2023-01-15T14:36:51.044Z,8.00
2023-01-15T14:39:32.536Z,17.38
2023-01-15T14:42:25.866Z,11.30
2023-01-15T14:45:02.773Z,8.68
2023-01-15T14:47:52.207Z,8.52
2023-01-15T14:50:24.533Z,9.37
2023-01-15T14:52:53.447Z,9.13
2023-01-15T14:55:21.117Z,10.75
2023-01-15T14:58:05.975Z,11.88
2023-01-15T15:01:05.520Z,11.35
2023-01-15T15:03:52.401Z,11.52
2023-01-15T15:18:25.499Z,10.48
2023-01-15T15:25:34.659Z,10.05
2023-01-15T15:43:10.561Z,11.88
2023-01-15T15:49:22.735Z,13.65
2023-01-15T15:51:54.055Z,12.82
2023-01-15T15:54:23.523Z,14.43
2023-01-15T15:56:56.396Z,11.80
2023-01-15T15:59:51.433Z,10.88
2023-01-15T16:02:37.981Z,12.52
2023-01-15T16:05:26.487Z,13.45
2023-01-15T16:08:00.548Z,11.15
2023-01-15T16:10:32.331Z,11.43
2023-01-15T16:13:04.424Z,11.75
2023-01-15T16:15:41.079Z,13.73
2023-01-15T16:18:21.735Z,10.43
2023-01-15T16:20:48.759Z,12.30
2023-01-15T16:23:32.133Z,11.85
2023-01-15T16:26:25.332Z,11.50
2023-01-15T16:29:00.129Z,13.23
2023-01-15T16:31:52.024Z,16.52
2023-01-15T16:37:52.058Z,13.00
2023-01-15T16:40:32.816Z,10.88
2023-01-15T16:43:13.319Z,12.18
2023-01-15T16:46:01.129Z,14.07
2023-01-15T16:48:38.115Z,12.80
2023-01-15T16:51:34.008Z,13.13
2023-01-15T16:54:04.526Z,15.95
2023-01-15T16:56:38.177Z,14.80
2023-01-15T16:59:14.897Z,12.35
2023-01-15T17:01:51.044Z,13.15
2023-01-15T17:04:49.016Z,12.57
2023-01-15T17:10:26.091Z,16.38
2023-01-15T17:12:56.335Z,33.22
2023-01-15T17:15:26.201Z,31.52
2023-01-15T17:17:55.248Z,26.13
2023-01-15T17:20:29.298Z,21.65
2023-01-15T17:22:56.422Z,17.85
2023-01-15T17:25:33.419Z,18.58
2023-01-15T17:28:09.037Z,16.65
2023-01-15T17:30:35.862Z,15.65
2023-01-15T17:33:05.179Z,16.63
2023-01-15T17:35:35.050Z,11.43
2023-01-15T17:38:03.307Z,13.98
2023-01-15T17:40:30.209Z,11.88
2023-01-15T17:43:00.073Z,14.52
2023-01-15T17:45:32.745Z,28.90
2023-01-15T17:48:04.499Z,17.38
2023-01-15T17:50:32.556Z,39.20
2023-01-15T17:52:59.420Z,22.48
2023-01-15T17:55:45.267Z,19.67
2023-01-15T17:58:34.598Z,19.42
2023-01-15T18:01:24.215Z,17.13
2023-01-15T18:04:11.730Z,14.73
2023-01-15T18:06:46.075Z,14.30
2023-01-15T18:09:13.523Z,17.23
2023-01-15T18:11:40.433Z,13.88
2023-01-15T18:14:07.397Z,11.93
2023-01-15T18:16:34.193Z,13.48
2023-01-15T18:19:00.968Z,12.38
2023-01-15T18:21:28.586Z,13.27
2023-01-15T18:23:56.093Z,13.38
2023-01-15T18:26:22.943Z,16.60
2023-01-15T18:28:50.821Z,16.30
2023-01-15T18:31:17.872Z,14.57
2023-01-15T18:33:45.955Z,14.43
2023-01-15T18:36:16.851Z,13.85
2023-01-15T18:38:44.580Z,14.68
2023-01-15T18:41:35.555Z,13.70
2023-01-15T18:44:25.548Z,16.25
2023-01-15T18:47:02.264Z,15.25
2023-01-15T18:49:32.467Z,16.58
2023-01-15T18:52:20.413Z,15.43
2023-01-15T18:54:47.370Z,14.05
2023-01-15T18:57:15.384Z,13.35
2023-01-15T18:59:48.968Z,13.18
2023-01-15T19:02:17.527Z,13.73
2023-01-15T19:04:45.063Z,12.90
2023-01-15T19:07:12.110Z,11.45
2023-01-15T19:09:42.048Z,9.27
2023-01-15T19:12:12.521Z,8.55
2023-01-15T19:18:59.767Z,5.47
2023-01-15T19:22:19.613Z,5.45
2023-01-15T19:25:09.720Z,6.07
2023-01-15T19:31:24.845Z,5.45
2023-01-15T19:34:31.581Z,5.22
2023-01-15T19:37:08.767Z,5.03
2023-01-15T19:41:28.957Z,5.28
2023-01-15T19:43:08.072Z,5.93
2023-01-15T19:45:56.638Z,5.53
2023-01-15T19:52:09.529Z,5.05
2023-01-15T19:57:48.317Z,5.28
2023-01-15T20:04:45.332Z,4.82
2023-01-15T20:07:12.928Z,4.53
2023-01-15T20:09:43.485Z,4.00
2023-01-15T20:12:30.327Z,4.40
2023-01-15T20:14:57.364Z,4.78
2023-01-15T20:17:24.936Z,4.90
2023-01-15T20:19:52.354Z,5.18
2023-01-15T20:22:19.237Z,5.28
2023-01-15T20:24:47.818Z,5.85
2023-01-15T20:27:17.625Z,5.88
2023-01-15T20:29:51.882Z,6.18
2023-01-15T20:32:23.036Z,6.00
2023-01-15T20:34:53.257Z,6.65
2023-01-15T20:37:23.746Z,6.30
2023-01-15T20:39:53.379Z,6.43
2023-01-15T20:42:48.173Z,8.13
2023-01-15T20:45:19.089Z,6.78
2023-01-15T20:48:04.745Z,8.13
2023-01-15T20:50:33.803Z,7.93
2023-01-15T20:53:02.823Z,9.70
2023-01-15T20:55:55.765Z,7.97
2023-01-15T20:58:25.804Z,7.22
2023-01-15T21:00:54.329Z,7.25
2023-01-15T21:03:21.317Z,8.52
2023-01-15T21:05:48.309Z,6.97
2023-01-15T21:08:17.734Z,6.78
2023-01-15T21:10:47.097Z,6.40
2023-01-15T21:13:13.918Z,4.95
2023-01-15T21:15:43.429Z,4.88
2023-01-15T21:18:13.259Z,5.88
2023-01-15T21:20:40.145Z,5.55
2023-01-15T21:23:09.598Z,5.47
2023-01-15T21:25:39.320Z,5.57
2023-01-15T21:28:06.282Z,6.00
2023-01-15T21:30:34.727Z,6.50
2023-01-15T21:33:02.237Z,6.28
2023-01-15T21:35:29.082Z,6.88
2023-01-15T21:37:56.809Z,7.15
2023-01-15T21:40:23.816Z,7.28
2023-01-15T21:43:10.765Z,7.97
2023-01-15T21:45:39.201Z,7.85
2023-01-15T21:48:06.433Z,7.85
2023-01-15T21:50:36.947Z,8.35
2023-01-15T21:53:04.532Z,9.30
2023-01-15T21:55:31.903Z,9.75
2023-01-15T21:57:59.984Z,9.32
2023-01-15T22:00:28.115Z,9.25
2023-01-15T22:02:56.188Z,9.40
2023-01-15T22:05:29.056Z,8.88
2023-01-15T22:07:56.421Z,9.95
2023-01-15T22:10:24.423Z,10.23
2023-01-15T22:12:51.840Z,9.52
2023-01-15T22:15:19.370Z,10.23
2023-01-15T22:17:51.884Z,11.40
2023-01-15T22:20:18.924Z,10.60
2023-01-15T22:22:48.768Z,10.70
2023-01-15T22:25:16.367Z,9.98
2023-01-15T22:27:43.570Z,10.18
2023-01-15T22:30:12.575Z,8.95
2023-01-15T22:32:39.674Z,8.85
2023-01-15T22:35:08.068Z,8.75
2023-01-15T22:37:34.916Z,10.25
2023-01-15T22:40:04.559Z,11.07
2023-01-15T22:42:33.233Z,12.30
2023-01-15T22:45:01.078Z,15.25
2023-01-15T22:47:29.426Z,16.88
2023-01-15T22:49:57.212Z,14.90
2023-01-15T22:52:25.898Z,17.60
2023-01-15T22:54:54.015Z,17.40
2023-01-15T22:57:21.330Z,16.33
2023-01-15T22:59:50.353Z,16.20
2023-01-15T23:02:18.402Z,17.98
2023-01-15T23:04:46.013Z,16.52
2023-01-15T23:07:30.928Z,15.73
2023-01-15T23:13:17.327Z,16.65
2023-01-15T23:16:55.782Z,16.13
2023-01-15T23:19:38.827Z,17.58
2023-01-15T23:22:43.527Z,16.23
2023-01-15T23:28:35.521Z,16.10
2023-01-15T23:31:26.803Z,18.05
2023-01-15T23:34:18.251Z,16.98
2023-01-15T23:37:01.334Z,15.50
2023-01-15T23:39:47.795Z,14.77
2023-01-15T23:43:26.366Z,13.82
2023-01-15T23:46:27.504Z,14.30
2023-01-15T23:49:41.704Z,14.85
2023-01-15T23:52:33.106Z,13.73
2023-01-15T23:56:15.943Z,15.50
2023-01-15T23:58:43.395Z,13.70
